sensor_id;sensor_type;location;lat;lon;timestamp;P1;durP1;ratioP1;P2;durP2;ratioP2
11283;SDS011;5698;47.332;11.180;2022-09-03T00:00:18;1.80;;;1.70;;
11283;SDS011;5698;47.332;11.180;2022-09-03T00:02:48;1.50;;;1.40;;
11283;SDS011;5698;47.332;11.180;2022-09-03T00:05:24;1.70;;;1.60;;
11283;SDS011;5698;47.332;11.180;2022-09-03T00:07:56;1.50;;;1.40;;
11283;SDS011;5698;47.332;11.180;2022-09-03T00:10:29;1.60;;;1.50;;
11283;SDS011;5698;47.332;11.180;2022-09-03T00:13:01;2.13;;;1.80;;
11283;SDS011;5698;47.332;11.180;2022-09-03T00:15:32;1.60;;;1.50;;
11283;SDS011;5698;47.332;11.180;2022-09-03T00:18:03;1.80;;;1.70;;
11283;SDS011;5698;47.332;11.180;2022-09-03T00:20:32;1.87;;;1.77;;
11283;SDS011;5698;47.332;11.180;2022-09-03T00:23:04;2.00;;;1.80;;
11283;SDS011;5698;47.332;11.180;2022-09-03T00:25:36;1.70;;;1.60;;
11283;SDS011;5698;47.332;11.180;2022-09-03T00:28:13;2.07;;;1.87;;
11283;SDS011;5698;47.332;11.180;2022-09-03T00:30:44;2.00;;;1.90;;
11283;SDS011;5698;47.332;11.180;2022-09-03T00:33:22;2.73;;;1.80;;
11283;SDS011;5698;47.332;11.180;2022-09-03T00:36:01;2.07;;;1.90;;
11283;SDS011;5698;47.332;11.180;2022-09-03T00:38:33;1.97;;;1.87;;
11283;SDS011;5698;47.332;11.180;2022-09-03T00:41:04;2.00;;;1.90;;
11283;SDS011;5698;47.332;11.180;2022-09-03T00:43:41;3.37;;;1.90;;
11283;SDS011;5698;47.332;11.180;2022-09-03T00:46:29;1.93;;;1.77;;
11283;SDS011;5698;47.332;11.180;2022-09-03T00:49:09;1.93;;;1.73;;
11283;SDS011;5698;47.332;11.180;2022-09-03T00:51:53;2.63;;;1.63;;
11283;SDS011;5698;47.332;11.180;2022-09-03T00:54:30;2.23;;;2.03;;
11283;SDS011;5698;47.332;11.180;2022-09-03T00:57:17;1.67;;;1.57;;
11283;SDS011;5698;47.332;11.180;2022-09-03T00:59:56;2.00;;;1.73;;
11283;SDS011;5698;47.332;11.180;2022-09-03T01:02:32;1.87;;;1.77;;
11283;SDS011;5698;47.332;11.180;2022-09-03T01:05:15;1.90;;;1.70;;
11283;SDS011;5698;47.332;11.180;2022-09-03T01:07:53;3.53;;;1.60;;
11283;SDS011;5698;47.332;11.180;2022-09-03T01:10:27;1.70;;;1.60;;
11283;SDS011;5698;47.332;11.180;2022-09-03T01:13:04;1.90;;;1.80;;
11283;SDS011;5698;47.332;11.180;2022-09-03T01:15:42;1.80;;;1.70;;
11283;SDS011;5698;47.332;11.180;2022-09-03T01:18:15;1.70;;;1.60;;
11283;SDS011;5698;47.332;11.180;2022-09-03T01:20:52;2.60;;;1.97;;
11283;SDS011;5698;47.332;11.180;2022-09-03T01:23:42;1.83;;;1.73;;
11283;SDS011;5698;47.332;11.180;2022-09-03T01:26:26;1.87;;;1.77;;
11283;SDS011;5698;47.332;11.180;2022-09-03T01:29:08;2.33;;;1.63;;
11283;SDS011;5698;47.332;11.180;2022-09-03T01:31:44;1.80;;;1.70;;
11283;SDS011;5698;47.332;11.180;2022-09-03T01:34:19;1.83;;;1.73;;
11283;SDS011;5698;47.332;11.180;2022-09-03T01:36:55;2.30;;;2.10;;
11283;SDS011;5698;47.332;11.180;2022-09-03T01:39:32;2.50;;;1.73;;
11283;SDS011;5698;47.332;11.180;2022-09-03T01:42:09;2.03;;;1.60;;
11283;SDS011;5698;47.332;11.180;2022-09-03T01:47:58;3.70;;;1.90;;
11283;SDS011;5698;47.332;11.180;2022-09-03T01:50:42;2.03;;;1.67;;
11283;SDS011;5698;47.332;11.180;2022-09-03T01:53:18;4.80;;;1.90;;
11283;SDS011;5698;47.332;11.180;2022-09-03T01:56:10;1.63;;;1.53;;
11283;SDS011;5698;47.332;11.180;2022-09-03T01:58:46;1.60;;;1.50;;
11283;SDS011;5698;47.332;11.180;2022-09-03T02:01:23;1.70;;;1.60;;
11283;SDS011;5698;47.332;11.180;2022-09-03T02:03:54;1.57;;;1.47;;
11283;SDS011;5698;47.332;11.180;2022-09-03T02:06:24;1.70;;;1.60;;
11283;SDS011;5698;47.332;11.180;2022-09-03T02:08:51;2.23;;;1.50;;
11283;SDS011;5698;47.332;11.180;2022-09-03T02:11:19;1.40;;;1.33;;
11283;SDS011;5698;47.332;11.180;2022-09-03T02:13:46;1.80;;;1.43;;
11283;SDS011;5698;47.332;11.180;2022-09-03T02:16:18;1.67;;;1.40;;
11283;SDS011;5698;47.332;11.180;2022-09-03T02:18:50;1.50;;;1.40;;
11283;SDS011;5698;47.332;11.180;2022-09-03T02:21:20;1.50;;;1.40;;
11283;SDS011;5698;47.332;11.180;2022-09-03T02:23:49;1.80;;;1.70;;
11283;SDS011;5698;47.332;11.180;2022-09-03T02:26:17;2.13;;;1.40;;
11283;SDS011;5698;47.332;11.180;2022-09-03T02:28:47;1.67;;;1.57;;
11283;SDS011;5698;47.332;11.180;2022-09-03T02:31:15;2.83;;;1.50;;
11283;SDS011;5698;47.332;11.180;2022-09-03T02:33:43;1.57;;;1.43;;
11283;SDS011;5698;47.332;11.180;2022-09-03T02:36:14;1.90;;;1.60;;
11283;SDS011;5698;47.332;11.180;2022-09-03T02:38:50;1.93;;;1.63;;
11283;SDS011;5698;47.332;11.180;2022-09-03T02:41:17;1.70;;;1.60;;
11283;SDS011;5698;47.332;11.180;2022-09-03T02:43:45;4.40;;;1.40;;
11283;SDS011;5698;47.332;11.180;2022-09-03T02:46:17;2.67;;;1.77;;
11283;SDS011;5698;47.332;11.180;2022-09-03T02:48:48;2.00;;;1.80;;
11283;SDS011;5698;47.332;11.180;2022-09-03T02:51:16;2.50;;;1.50;;
11283;SDS011;5698;47.332;11.180;2022-09-03T02:53:43;1.60;;;1.50;;
11283;SDS011;5698;47.332;11.180;2022-09-03T02:56:11;2.27;;;1.70;;
11283;SDS011;5698;47.332;11.180;2022-09-03T02:58:38;2.03;;;1.77;;
11283;SDS011;5698;47.332;11.180;2022-09-03T03:01:05;1.97;;;1.80;;
11283;SDS011;5698;47.332;11.180;2022-09-03T03:03:32;1.80;;;1.70;;
11283;SDS011;5698;47.332;11.180;2022-09-03T03:05:59;1.67;;;1.57;;
11283;SDS011;5698;47.332;11.180;2022-09-03T03:08:31;2.00;;;1.90;;
11283;SDS011;5698;47.332;11.180;2022-09-03T03:10:59;1.80;;;1.70;;
11283;SDS011;5698;47.332;11.180;2022-09-03T03:13:26;1.70;;;1.60;;
11283;SDS011;5698;47.332;11.180;2022-09-03T03:15:55;5.73;;;1.80;;
11283;SDS011;5698;47.332;11.180;2022-09-03T03:18:22;2.10;;;1.80;;
11283;SDS011;5698;47.332;11.180;2022-09-03T03:20:49;1.97;;;1.87;;
11283;SDS011;5698;47.332;11.180;2022-09-03T03:23:16;2.10;;;1.67;;
11283;SDS011;5698;47.332;11.180;2022-09-03T03:25:45;1.97;;;1.87;;
11283;SDS011;5698;47.332;11.180;2022-09-03T03:28:12;2.83;;;1.90;;
11283;SDS011;5698;47.332;11.180;2022-09-03T03:30:39;2.63;;;1.80;;
11283;SDS011;5698;47.332;11.180;2022-09-03T03:33:07;2.33;;;1.70;;
11283;SDS011;5698;47.332;11.180;2022-09-03T03:35:34;2.37;;;1.90;;
11283;SDS011;5698;47.332;11.180;2022-09-03T03:38:01;1.80;;;1.70;;
11283;SDS011;5698;47.332;11.180;2022-09-03T03:40:29;1.77;;;1.60;;
11283;SDS011;5698;47.332;11.180;2022-09-03T03:42:57;1.70;;;1.60;;
11283;SDS011;5698;47.332;11.180;2022-09-03T03:45:24;2.20;;;2.00;;
11283;SDS011;5698;47.332;11.180;2022-09-03T03:47:55;1.90;;;1.77;;
11283;SDS011;5698;47.332;11.180;2022-09-03T03:50:22;2.27;;;1.87;;
11283;SDS011;5698;47.332;11.180;2022-09-03T03:52:50;1.77;;;1.67;;
11283;SDS011;5698;47.332;11.180;2022-09-03T03:55:17;1.60;;;1.50;;
11283;SDS011;5698;47.332;11.180;2022-09-03T03:57:44;1.93;;;1.83;;
11283;SDS011;5698;47.332;11.180;2022-09-03T04:00:13;1.70;;;1.60;;
11283;SDS011;5698;47.332;11.180;2022-09-03T04:02:41;4.17;;;1.90;;
11283;SDS011;5698;47.332;11.180;2022-09-03T04:05:08;1.70;;;1.60;;
11283;SDS011;5698;47.332;11.180;2022-09-03T04:07:35;1.70;;;1.60;;
11283;SDS011;5698;47.332;11.180;2022-09-03T04:10:02;3.87;;;1.80;;
11283;SDS011;5698;47.332;11.180;2022-09-03T04:12:30;5.67;;;2.10;;
11283;SDS011;5698;47.332;11.180;2022-09-03T04:14:57;2.90;;;2.10;;
11283;SDS011;5698;47.332;11.180;2022-09-03T04:17:25;2.80;;;1.67;;
11283;SDS011;5698;47.332;11.180;2022-09-03T04:19:53;2.10;;;1.57;;
11283;SDS011;5698;47.332;11.180;2022-09-03T04:22:20;1.60;;;1.50;;
11283;SDS011;5698;47.332;11.180;2022-09-03T04:24:47;2.73;;;1.77;;
11283;SDS011;5698;47.332;11.180;2022-09-03T04:27:14;2.33;;;1.80;;
11283;SDS011;5698;47.332;11.180;2022-09-03T04:29:41;1.77;;;1.67;;
11283;SDS011;5698;47.332;11.180;2022-09-03T04:32:08;1.97;;;1.60;;
11283;SDS011;5698;47.332;11.180;2022-09-03T04:34:54;1.70;;;1.60;;
11283;SDS011;5698;47.332;11.180;2022-09-03T04:37:21;1.83;;;1.63;;
11283;SDS011;5698;47.332;11.180;2022-09-03T04:39:48;2.20;;;2.00;;
11283;SDS011;5698;47.332;11.180;2022-09-03T04:42:15;1.60;;;1.50;;
11283;SDS011;5698;47.332;11.180;2022-09-03T04:44:42;1.53;;;1.43;;
11283;SDS011;5698;47.332;11.180;2022-09-03T04:47:09;2.17;;;1.63;;
11283;SDS011;5698;47.332;11.180;2022-09-03T04:49:36;1.67;;;1.57;;
11283;SDS011;5698;47.332;11.180;2022-09-03T04:52:05;1.40;;;1.30;;
11283;SDS011;5698;47.332;11.180;2022-09-03T04:54:34;1.30;;;1.20;;
11283;SDS011;5698;47.332;11.180;2022-09-03T04:57:01;1.57;;;1.47;;
11283;SDS011;5698;47.332;11.180;2022-09-03T04:59:28;1.70;;;1.60;;
11283;SDS011;5698;47.332;11.180;2022-09-03T05:01:55;1.63;;;1.40;;
11283;SDS011;5698;47.332;11.180;2022-09-03T05:04:22;2.07;;;1.40;;
11283;SDS011;5698;47.332;11.180;2022-09-03T05:06:49;2.07;;;1.87;;
11283;SDS011;5698;47.332;11.180;2022-09-03T05:09:17;1.50;;;1.40;;
11283;SDS011;5698;47.332;11.180;2022-09-03T05:11:44;1.70;;;1.60;;
11283;SDS011;5698;47.332;11.180;2022-09-03T05:14:11;2.03;;;1.63;;
11283;SDS011;5698;47.332;11.180;2022-09-03T05:16:38;1.57;;;1.40;;
11283;SDS011;5698;47.332;11.180;2022-09-03T05:19:05;2.17;;;1.43;;
11283;SDS011;5698;47.332;11.180;2022-09-03T05:21:33;1.53;;;1.33;;
11283;SDS011;5698;47.332;11.180;2022-09-03T05:24:01;1.70;;;1.60;;
11283;SDS011;5698;47.332;11.180;2022-09-03T05:26:31;1.60;;;1.40;;
11283;SDS011;5698;47.332;11.180;2022-09-03T05:29:02;1.40;;;1.30;;
11283;SDS011;5698;47.332;11.180;2022-09-03T05:31:31;1.60;;;1.50;;
11283;SDS011;5698;47.332;11.180;2022-09-03T05:34:00;1.57;;;1.47;;
11283;SDS011;5698;47.332;11.180;2022-09-03T05:36:29;1.77;;;1.40;;
11283;SDS011;5698;47.332;11.180;2022-09-03T05:38:58;2.40;;;1.33;;
11283;SDS011;5698;47.332;11.180;2022-09-03T05:41:25;1.60;;;1.50;;
11283;SDS011;5698;47.332;11.180;2022-09-03T05:43:55;2.50;;;1.60;;
11283;SDS011;5698;47.332;11.180;2022-09-03T05:46:23;1.50;;;1.40;;
11283;SDS011;5698;47.332;11.180;2022-09-03T05:48:55;2.63;;;1.47;;
11283;SDS011;5698;47.332;11.180;2022-09-03T05:51:23;1.80;;;1.40;;
11283;SDS011;5698;47.332;11.180;2022-09-03T05:53:50;1.53;;;1.43;;
11283;SDS011;5698;47.332;11.180;2022-09-03T05:56:20;2.57;;;2.23;;
11283;SDS011;5698;47.332;11.180;2022-09-03T05:58:48;2.13;;;1.87;;
11283;SDS011;5698;47.332;11.180;2022-09-03T06:01:19;2.93;;;2.70;;
11283;SDS011;5698;47.332;11.180;2022-09-03T06:03:47;2.80;;;2.50;;
11283;SDS011;5698;47.332;11.180;2022-09-03T06:06:19;3.03;;;2.70;;
11283;SDS011;5698;47.332;11.180;2022-09-03T06:08:49;2.90;;;2.60;;
11283;SDS011;5698;47.332;11.180;2022-09-03T06:11:16;2.40;;;2.20;;
11283;SDS011;5698;47.332;11.180;2022-09-03T06:13:43;2.30;;;2.10;;
11283;SDS011;5698;47.332;11.180;2022-09-03T06:16:11;2.00;;;1.90;;
11283;SDS011;5698;47.332;11.180;2022-09-03T06:18:40;2.60;;;1.83;;
11283;SDS011;5698;47.332;11.180;2022-09-03T06:21:07;1.73;;;1.60;;
11283;SDS011;5698;47.332;11.180;2022-09-03T06:23:34;2.77;;;1.50;;
11283;SDS011;5698;47.332;11.180;2022-09-03T06:28:30;1.60;;;1.50;;
11283;SDS011;5698;47.332;11.180;2022-09-03T06:30:58;3.83;;;2.00;;
11283;SDS011;5698;47.332;11.180;2022-09-03T06:33:26;2.00;;;1.87;;
11283;SDS011;5698;47.332;11.180;2022-09-03T06:35:56;1.97;;;1.87;;
11283;SDS011;5698;47.332;11.180;2022-09-03T06:38:24;1.60;;;1.50;;
11283;SDS011;5698;47.332;11.180;2022-09-03T06:40:53;1.23;;;1.13;;
11283;SDS011;5698;47.332;11.180;2022-09-03T06:43:21;1.53;;;1.43;;
11283;SDS011;5698;47.332;11.180;2022-09-03T06:45:52;1.40;;;1.30;;
11283;SDS011;5698;47.332;11.180;2022-09-03T06:48:21;1.63;;;1.43;;
11283;SDS011;5698;47.332;11.180;2022-09-03T06:50:52;1.50;;;1.40;;
11283;SDS011;5698;47.332;11.180;2022-09-03T06:53:23;1.50;;;1.40;;
11283;SDS011;5698;47.332;11.180;2022-09-03T06:55:54;3.83;;;1.40;;
11283;SDS011;5698;47.332;11.180;2022-09-03T06:58:23;1.10;;;1.00;;
11283;SDS011;5698;47.332;11.180;2022-09-03T07:00:50;1.30;;;1.20;;
11283;SDS011;5698;47.332;11.180;2022-09-03T07:03:18;1.83;;;1.50;;
11283;SDS011;5698;47.332;11.180;2022-09-03T07:05:45;1.70;;;1.43;;
11283;SDS011;5698;47.332;11.180;2022-09-03T07:08:13;1.40;;;1.30;;
11283;SDS011;5698;47.332;11.180;2022-09-03T07:10:41;1.77;;;1.30;;
11283;SDS011;5698;47.332;11.180;2022-09-03T07:13:11;1.30;;;1.13;;
11283;SDS011;5698;47.332;11.180;2022-09-03T07:15:39;2.43;;;1.33;;
11283;SDS011;5698;47.332;11.180;2022-09-03T07:18:06;1.00;;;1.00;;
11283;SDS011;5698;47.332;11.180;2022-09-03T07:20:33;4.80;;;1.50;;
11283;SDS011;5698;47.332;11.180;2022-09-03T07:23:00;1.60;;;1.50;;
11283;SDS011;5698;47.332;11.180;2022-09-03T07:25:28;1.00;;;1.00;;
11283;SDS011;5698;47.332;11.180;2022-09-03T07:27:57;2.67;;;1.30;;
11283;SDS011;5698;47.332;11.180;2022-09-03T07:30:24;1.20;;;1.10;;
11283;SDS011;5698;47.332;11.180;2022-09-03T07:32:51;1.63;;;1.40;;
11283;SDS011;5698;47.332;11.180;2022-09-03T07:35:19;1.67;;;1.20;;
11283;SDS011;5698;47.332;11.180;2022-09-03T07:37:49;1.27;;;1.17;;
11283;SDS011;5698;47.332;11.180;2022-09-03T07:40:19;1.27;;;1.17;;
11283;SDS011;5698;47.332;11.180;2022-09-03T07:42:46;1.30;;;1.20;;
11283;SDS011;5698;47.332;11.180;2022-09-03T07:45:15;1.53;;;1.43;;
11283;SDS011;5698;47.332;11.180;2022-09-03T07:47:46;1.67;;;1.40;;
11283;SDS011;5698;47.332;11.180;2022-09-03T07:50:14;1.30;;;1.10;;
11283;SDS011;5698;47.332;11.180;2022-09-03T07:52:41;1.37;;;1.27;;
11283;SDS011;5698;47.332;11.180;2022-09-03T07:55:08;1.83;;;1.20;;
11283;SDS011;5698;47.332;11.180;2022-09-03T07:57:35;1.50;;;1.40;;
11283;SDS011;5698;47.332;11.180;2022-09-03T08:00:03;1.57;;;1.10;;
11283;SDS011;5698;47.332;11.180;2022-09-03T08:02:32;2.53;;;1.40;;
11283;SDS011;5698;47.332;11.180;2022-09-03T08:04:59;1.30;;;1.20;;
11283;SDS011;5698;47.332;11.180;2022-09-03T08:07:27;1.63;;;1.03;;
11283;SDS011;5698;47.332;11.180;2022-09-03T08:09:54;1.30;;;1.20;;
11283;SDS011;5698;47.332;11.180;2022-09-03T08:12:22;1.77;;;1.40;;
11283;SDS011;5698;47.332;11.180;2022-09-03T08:14:49;1.53;;;1.43;;
11283;SDS011;5698;47.332;11.180;2022-09-03T08:17:16;1.77;;;1.40;;
11283;SDS011;5698;47.332;11.180;2022-09-03T08:19:44;1.67;;;1.57;;
11283;SDS011;5698;47.332;11.180;2022-09-03T08:22:12;3.03;;;1.43;;
11283;SDS011;5698;47.332;11.180;2022-09-03T08:24:39;1.57;;;1.47;;
11283;SDS011;5698;47.332;11.180;2022-09-03T08:27:07;1.50;;;1.40;;
11283;SDS011;5698;47.332;11.180;2022-09-03T08:29:34;1.40;;;1.30;;
11283;SDS011;5698;47.332;11.180;2022-09-03T08:32:02;1.93;;;1.10;;
11283;SDS011;5698;47.332;11.180;2022-09-03T08:34:29;3.13;;;1.30;;
11283;SDS011;5698;47.332;11.180;2022-09-03T08:36:58;1.60;;;1.50;;
11283;SDS011;5698;47.332;11.180;2022-09-03T08:39:26;2.20;;;1.60;;
11283;SDS011;5698;47.332;11.180;2022-09-03T08:42:06;1.80;;;1.50;;
11283;SDS011;5698;47.332;11.180;2022-09-03T08:44:47;1.37;;;1.27;;
11283;SDS011;5698;47.332;11.180;2022-09-03T08:47:20;2.60;;;1.50;;
11283;SDS011;5698;47.332;11.180;2022-09-03T08:49:52;1.83;;;1.60;;
11283;SDS011;5698;47.332;11.180;2022-09-03T08:52:32;1.60;;;1.50;;
11283;SDS011;5698;47.332;11.180;2022-09-03T08:55:11;1.63;;;1.50;;
11283;SDS011;5698;47.332;11.180;2022-09-03T08:57:44;1.60;;;1.50;;
11283;SDS011;5698;47.332;11.180;2022-09-03T09:00:14;1.40;;;1.30;;
11283;SDS011;5698;47.332;11.180;2022-09-03T09:02:45;3.33;;;2.00;;
11283;SDS011;5698;47.332;11.180;2022-09-03T09:05:21;1.60;;;1.50;;
11283;SDS011;5698;47.332;11.180;2022-09-03T09:07:56;2.27;;;1.63;;
11283;SDS011;5698;47.332;11.180;2022-09-03T09:10:33;2.37;;;1.80;;
11283;SDS011;5698;47.332;11.180;2022-09-03T09:13:12;3.07;;;1.50;;
11283;SDS011;5698;47.332;11.180;2022-09-03T09:15:47;2.90;;;1.27;;
11283;SDS011;5698;47.332;11.180;2022-09-03T09:18:22;2.83;;;1.80;;
11283;SDS011;5698;47.332;11.180;2022-09-03T09:21:05;1.57;;;1.47;;
11283;SDS011;5698;47.332;11.180;2022-09-03T09:23:39;12.20;;;3.80;;
11283;SDS011;5698;47.332;11.180;2022-09-03T09:26:09;2.17;;;1.43;;
11283;SDS011;5698;47.332;11.180;2022-09-03T09:28:40;2.27;;;1.70;;
11283;SDS011;5698;47.332;11.180;2022-09-03T09:31:11;2.90;;;1.70;;
11283;SDS011;5698;47.332;11.180;2022-09-03T09:33:42;2.03;;;1.60;;
11283;SDS011;5698;47.332;11.180;2022-09-03T09:36:10;1.53;;;1.40;;
11283;SDS011;5698;47.332;11.180;2022-09-03T09:38:42;2.90;;;1.50;;
11283;SDS011;5698;47.332;11.180;2022-09-03T09:41:11;2.00;;;1.67;;
11283;SDS011;5698;47.332;11.180;2022-09-03T09:43:39;1.63;;;1.50;;
11283;SDS011;5698;47.332;11.180;2022-09-03T09:46:08;2.80;;;1.73;;
11283;SDS011;5698;47.332;11.180;2022-09-03T09:48:39;1.73;;;1.50;;
11283;SDS011;5698;47.332;11.180;2022-09-03T09:51:16;1.57;;;1.47;;
11283;SDS011;5698;47.332;11.180;2022-09-03T09:53:46;2.10;;;1.40;;
11283;SDS011;5698;47.332;11.180;2022-09-03T09:56:23;1.70;;;1.40;;
11283;SDS011;5698;47.332;11.180;2022-09-03T09:59:00;1.40;;;1.30;;
11283;SDS011;5698;47.332;11.180;2022-09-03T10:01:28;1.40;;;1.30;;
11283;SDS011;5698;47.332;11.180;2022-09-03T10:03:56;1.50;;;1.40;;
11283;SDS011;5698;47.332;11.180;2022-09-03T10:06:25;1.37;;;1.20;;
11283;SDS011;5698;47.332;11.180;2022-09-03T10:09:14;1.80;;;1.30;;
11283;SDS011;5698;47.332;11.180;2022-09-03T10:11:43;1.67;;;1.30;;
11283;SDS011;5698;47.332;11.180;2022-09-03T10:14:14;1.83;;;1.10;;
11283;SDS011;5698;47.332;11.180;2022-09-03T10:16:46;5.43;;;1.40;;
11283;SDS011;5698;47.332;11.180;2022-09-03T10:19:26;1.23;;;1.13;;
11283;SDS011;5698;47.332;11.180;2022-09-03T10:22:00;1.73;;;1.00;;
11283;SDS011;5698;47.332;11.180;2022-09-03T10:24:40;3.20;;;1.17;;
11283;SDS011;5698;47.332;11.180;2022-09-03T10:27:17;2.13;;;1.33;;
11283;SDS011;5698;47.332;11.180;2022-09-03T10:29:44;2.27;;;1.10;;
11283;SDS011;5698;47.332;11.180;2022-09-03T10:32:17;2.80;;;1.20;;
11283;SDS011;5698;47.332;11.180;2022-09-03T10:34:52;1.37;;;1.27;;
11283;SDS011;5698;47.332;11.180;2022-09-03T10:37:31;1.10;;;1.00;;
11283;SDS011;5698;47.332;11.180;2022-09-03T10:40:09;0.90;;;0.90;;
11283;SDS011;5698;47.332;11.180;2022-09-03T10:42:47;1.10;;;1.00;;
11283;SDS011;5698;47.332;11.180;2022-09-03T10:45:27;1.70;;;0.93;;
11283;SDS011;5698;47.332;11.180;2022-09-03T10:48:12;0.90;;;0.90;;
11283;SDS011;5698;47.332;11.180;2022-09-03T10:50:45;1.20;;;1.00;;
11283;SDS011;5698;47.332;11.180;2022-09-03T10:53:25;1.03;;;0.93;;
11283;SDS011;5698;47.332;11.180;2022-09-03T10:56:05;1.23;;;1.10;;
11283;SDS011;5698;47.332;11.180;2022-09-03T10:58:44;1.40;;;0.90;;
11283;SDS011;5698;47.332;11.180;2022-09-03T11:01:32;2.07;;;1.10;;
11283;SDS011;5698;47.332;11.180;2022-09-03T11:04:07;0.80;;;0.80;;
11283;SDS011;5698;47.332;11.180;2022-09-03T11:06:47;1.20;;;1.03;;
11283;SDS011;5698;47.332;11.180;2022-09-03T11:09:19;0.93;;;0.87;;
11283;SDS011;5698;47.332;11.180;2022-09-03T11:11:53;1.13;;;0.93;;
11283;SDS011;5698;47.332;11.180;2022-09-03T11:14:27;1.27;;;1.17;;
11283;SDS011;5698;47.332;11.180;2022-09-03T11:17:00;1.20;;;1.10;;
11283;SDS011;5698;47.332;11.180;2022-09-03T11:19:32;1.43;;;1.00;;
11283;SDS011;5698;47.332;11.180;2022-09-03T11:22:03;4.27;;;1.03;;
11283;SDS011;5698;47.332;11.180;2022-09-03T11:24:32;1.03;;;0.90;;
11283;SDS011;5698;47.332;11.180;2022-09-03T11:27:14;0.97;;;0.80;;
11283;SDS011;5698;47.332;11.180;2022-09-03T11:29:51;1.00;;;1.00;;
11283;SDS011;5698;47.332;11.180;2022-09-03T11:32:25;1.33;;;0.90;;
11283;SDS011;5698;47.332;11.180;2022-09-03T11:34:59;1.10;;;1.00;;
11283;SDS011;5698;47.332;11.180;2022-09-03T11:37:27;1.30;;;1.20;;
11283;SDS011;5698;47.332;11.180;2022-09-03T11:39:56;1.30;;;1.10;;
11283;SDS011;5698;47.332;11.180;2022-09-03T11:42:29;1.17;;;1.10;;
11283;SDS011;5698;47.332;11.180;2022-09-03T11:44:59;1.87;;;1.43;;
11283;SDS011;5698;47.332;11.180;2022-09-03T11:47:39;2.40;;;1.10;;
11283;SDS011;5698;47.332;11.180;2022-09-03T11:50:15;1.10;;;1.00;;
11283;SDS011;5698;47.332;11.180;2022-09-03T11:52:45;1.37;;;1.27;;
11283;SDS011;5698;47.332;11.180;2022-09-03T11:55:23;1.60;;;1.50;;
11283;SDS011;5698;47.332;11.180;2022-09-03T11:57:52;1.23;;;1.13;;
11283;SDS011;5698;47.332;11.180;2022-09-03T12:00:20;1.43;;;1.30;;
11283;SDS011;5698;47.332;11.180;2022-09-03T12:02:49;1.17;;;0.90;;
11283;SDS011;5698;47.332;11.180;2022-09-03T12:05:22;1.63;;;1.30;;
11283;SDS011;5698;47.332;11.180;2022-09-03T12:08:02;1.40;;;1.30;;
11283;SDS011;5698;47.332;11.180;2022-09-03T12:11:05;2.23;;;1.50;;
11283;SDS011;5698;47.332;11.180;2022-09-03T12:13:47;1.80;;;1.70;;
11283;SDS011;5698;47.332;11.180;2022-09-03T12:19:12;1.70;;;1.40;;
11283;SDS011;5698;47.332;11.180;2022-09-03T12:21:47;2.00;;;1.57;;
11283;SDS011;5698;47.332;11.180;2022-09-03T12:24:14;1.60;;;1.50;;
11283;SDS011;5698;47.332;11.180;2022-09-03T12:26:44;2.50;;;1.90;;
11283;SDS011;5698;47.332;11.180;2022-09-03T12:29:21;2.20;;;1.60;;
11283;SDS011;5698;47.332;11.180;2022-09-03T12:31:49;1.70;;;1.60;;
11283;SDS011;5698;47.332;11.180;2022-09-03T12:34:20;1.80;;;1.70;;
11283;SDS011;5698;47.332;11.180;2022-09-03T12:36:49;1.60;;;1.50;;
11283;SDS011;5698;47.332;11.180;2022-09-03T12:39:18;1.60;;;1.50;;
11283;SDS011;5698;47.332;11.180;2022-09-03T12:41:55;1.80;;;1.70;;
11283;SDS011;5698;47.332;11.180;2022-09-03T12:44:30;1.80;;;1.70;;
11283;SDS011;5698;47.332;11.180;2022-09-03T12:47:02;2.60;;;1.67;;
11283;SDS011;5698;47.332;11.180;2022-09-03T12:49:34;1.70;;;1.60;;
11283;SDS011;5698;47.332;11.180;2022-09-03T12:52:04;1.50;;;1.40;;
11283;SDS011;5698;47.332;11.180;2022-09-03T12:54:36;2.90;;;1.80;;
11283;SDS011;5698;47.332;11.180;2022-09-03T12:57:18;1.90;;;1.80;;
11283;SDS011;5698;47.332;11.180;2022-09-03T12:59:49;2.33;;;2.13;;
11283;SDS011;5698;47.332;11.180;2022-09-03T13:02:23;2.33;;;2.13;;
11283;SDS011;5698;47.332;11.180;2022-09-03T13:04:53;3.33;;;2.20;;
11283;SDS011;5698;47.332;11.180;2022-09-03T13:07:22;2.67;;;1.80;;
11283;SDS011;5698;47.332;11.180;2022-09-03T13:09:55;3.60;;;2.13;;
11283;SDS011;5698;47.332;11.180;2022-09-03T13:12:29;2.60;;;2.40;;
11283;SDS011;5698;47.332;11.180;2022-09-03T13:15:03;2.30;;;2.10;;
11283;SDS011;5698;47.332;11.180;2022-09-03T13:17:40;2.47;;;2.10;;
11283;SDS011;5698;47.332;11.180;2022-09-03T13:20:32;2.07;;;1.93;;
11283;SDS011;5698;47.332;11.180;2022-09-03T13:23:14;2.10;;;2.00;;
11283;SDS011;5698;47.332;11.180;2022-09-03T13:26:00;2.30;;;2.10;;
11283;SDS011;5698;47.332;11.180;2022-09-03T13:28:38;2.63;;;2.00;;
11283;SDS011;5698;47.332;11.180;2022-09-03T13:31:23;2.03;;;1.93;;
11283;SDS011;5698;47.332;11.180;2022-09-03T13:33:56;3.13;;;1.80;;
11283;SDS011;5698;47.332;11.180;2022-09-03T13:36:29;2.00;;;1.90;;
11283;SDS011;5698;47.332;11.180;2022-09-03T13:39:04;3.57;;;1.60;;
11283;SDS011;5698;47.332;11.180;2022-09-03T13:41:36;2.00;;;1.90;;
11283;SDS011;5698;47.332;11.180;2022-09-03T13:44:09;1.70;;;1.60;;
11283;SDS011;5698;47.332;11.180;2022-09-03T13:46:42;1.50;;;1.40;;
11283;SDS011;5698;47.332;11.180;2022-09-03T13:49:16;1.77;;;1.60;;
11283;SDS011;5698;47.332;11.180;2022-09-03T13:52:15;3.90;;;1.60;;
11283;SDS011;5698;47.332;11.180;2022-09-03T13:54:49;2.03;;;1.83;;
11283;SDS011;5698;47.332;11.180;2022-09-03T13:57:25;2.70;;;2.03;;
11283;SDS011;5698;47.332;11.180;2022-09-03T13:59:59;3.60;;;1.70;;
11283;SDS011;5698;47.332;11.180;2022-09-03T14:02:36;2.57;;;1.53;;
11283;SDS011;5698;47.332;11.180;2022-09-03T14:05:15;2.13;;;1.93;;
11283;SDS011;5698;47.332;11.180;2022-09-03T14:07:52;4.90;;;3.93;;
11283;SDS011;5698;47.332;11.180;2022-09-03T14:10:29;5.67;;;4.90;;
11283;SDS011;5698;47.332;11.180;2022-09-03T14:13:05;3.10;;;2.90;;
11283;SDS011;5698;47.332;11.180;2022-09-03T14:15:41;4.47;;;2.50;;
11283;SDS011;5698;47.332;11.180;2022-09-03T14:18:15;3.97;;;2.40;;
11283;SDS011;5698;47.332;11.180;2022-09-03T14:20:54;3.63;;;2.33;;
11283;SDS011;5698;47.332;11.180;2022-09-03T14:23:27;3.43;;;2.20;;
11283;SDS011;5698;47.332;11.180;2022-09-03T14:26:01;2.57;;;2.37;;
11283;SDS011;5698;47.332;11.180;2022-09-03T14:28:33;2.63;;;2.43;;
11283;SDS011;5698;47.332;11.180;2022-09-03T14:31:05;2.53;;;2.33;;
11283;SDS011;5698;47.332;11.180;2022-09-03T14:33:41;4.10;;;2.57;;
11283;SDS011;5698;47.332;11.180;2022-09-03T14:36:18;2.10;;;1.83;;
11283;SDS011;5698;47.332;11.180;2022-09-03T14:42:02;2.60;;;2.40;;
11283;SDS011;5698;47.332;11.180;2022-09-03T14:44:50;2.47;;;2.27;;
11283;SDS011;5698;47.332;11.180;2022-09-03T14:47:42;2.83;;;2.63;;
11283;SDS011;5698;47.332;11.180;2022-09-03T14:50:30;2.27;;;2.07;;
11283;SDS011;5698;47.332;11.180;2022-09-03T14:53:13;2.10;;;2.00;;
11283;SDS011;5698;47.332;11.180;2022-09-03T14:56:03;2.73;;;2.10;;
11283;SDS011;5698;47.332;11.180;2022-09-03T14:58:47;4.00;;;2.40;;
11283;SDS011;5698;47.332;11.180;2022-09-03T15:01:31;2.57;;;2.37;;
11283;SDS011;5698;47.332;11.180;2022-09-03T15:04:04;1.97;;;1.77;;
11283;SDS011;5698;47.332;11.180;2022-09-03T15:07:11;2.00;;;1.90;;
11283;SDS011;5698;47.332;11.180;2022-09-03T15:09:51;1.90;;;1.80;;
11283;SDS011;5698;47.332;11.180;2022-09-03T15:12:28;3.67;;;1.60;;
11283;SDS011;5698;47.332;11.180;2022-09-03T15:15:04;1.30;;;1.20;;
11283;SDS011;5698;47.332;11.180;2022-09-03T15:17:45;1.73;;;1.30;;
11283;SDS011;5698;47.332;11.180;2022-09-03T15:20:31;1.20;;;1.10;;
11283;SDS011;5698;47.332;11.180;2022-09-03T15:23:13;1.43;;;1.10;;
11283;SDS011;5698;47.332;11.180;2022-09-03T15:25:53;3.37;;;0.97;;
11283;SDS011;5698;47.332;11.180;2022-09-03T15:28:42;1.63;;;0.70;;
11283;SDS011;5698;47.332;11.180;2022-09-03T15:31:21;2.00;;;0.80;;